KTCM/TCM METAR and TAF weather

Enter ICAO airport designator
Station Type Date Time Source
KTCM METAR 2020/02/29 03:25 UTC NOAA

KTCM 290325Z AUTO 20010KT 10SM -RA FEW024 SCT035 BKN048 BKN070 BKN130 06/04 A2997 RMK AO2 RAB25 SLP155 $


Station Type Date Time Source
KTCM Decoded METAR 2020/02/29 03:25 UTC NOAA

Tacoma / McChord Air Force Base, WA, United States (KTCM) 47-09N 122-29W 87M
Feb 28, 2020 - 10:25 PM EST / 2020.02.29 0325 UTC
Wind: from the SSW (200 degrees) at 12 MPH (10 KT):0
Visibility: 10 mile(s):0
Sky conditions: mostly cloudy
Weather: light rain
Temperature: 42 F (6 C)
Dew Point: 39 F (4 C)
Relative Humidity: 86%
Pressure (altimeter): 29.97 in. Hg (1014 hPa)
ob: KTCM 290325Z AUTO 20010KT 10SM -RA FEW024 SCT035 BKN048 BKN070 BKN130 06/04 A2997 RMK AO2 RAB25 SLP155
cycle: 3

Station Type Date Time Source
KTCM TAF 2020/02/29 02:19 UTC NOAA

TAF
AMD KTCM 290209Z 2902/0103 20014G22KT 8000 -RA BKN010 OVC020 620309 QNH2994INS
TEMPO 2902/2905 22020G30KT
BECMG 2904/2905 22015G25KT 9000 -SHRA BKN015 OVC030 610309 520009 QNH2993INS
TEMPO 2905/2909 22020G30KT
BECMG 2908/2909 22014G22KT 8000 -SHRA OVC020 610209 QNH2994INS
BECMG 2914/2915 20012KT 9000 -SHRA BKN025 OVC050 610259 QNH2998INS
BECMG 2918/2919 21012G18KT 9999 VCSH BKN030 OVC080 610309 QNH3003INS TX11/2921Z TN03/2914Z

Example: see airport list